Time;durP1;ratioP1;P1;durP2;ratioP2;P2;SDS_P1;SDS_P2;PMS_P1;PMS_P2;Temp;Humidity;BMP_temperature;BMP_pressure;BME280_temperature;BME280_humidity;BME280_pressure;Samples;Min_cycle;Max_cycle;Signal;HPM_P1;HPM_P2
2023/02/17 00:02:04;;;;;;;14.90;10.53;;;11.80;99.90;;;;;;6334683;22;20425;-87
2023/02/17 00:04:31;;;;;;;16.70;10.80;;;11.90;1.00;;;;;;6336778;22;20204;-86
2023/02/17 00:06:57;;;;;;;21.03;10.20;;;11.90;1.00;;;;;;6308501;22;20154;-86
2023/02/17 00:09:23;;;;;;;13.40;9.93;;;11.90;1.00;;;;;;6336695;22;20492;-86
2023/02/17 00:11:49;;;;;;;13.37;9.90;;;11.80;1.00;;;;;;6308236;22;20433;-86
2023/02/17 00:14:15;;;;;;;15.40;11.10;;;11.80;1.00;;;;;;6335985;22;20488;-85
2023/02/17 00:16:41;;;;;;;17.33;11.23;;;11.80;50.90;;;;;;6335633;22;20382;-86
2023/02/17 00:19:23;;;;;;;11.60;9.20;;;11.80;25.10;;;;;;6336750;22;20393;-86
2023/02/17 00:21:50;;;;;;;13.90;10.07;;;11.80;41.20;;;;;;6335732;22;20391;-86
2023/02/17 00:24:16;;;;;;;14.87;9.73;;;11.80;99.90;;;;;;6308297;22;20790;-86
2023/02/17 00:26:42;;;;;;;12.00;10.20;;;11.80;99.90;;;;;;6337052;22;20377;-86
2023/02/17 00:29:08;;;;;;;13.20;9.53;;;11.80;99.90;;;;;;6336634;22;20393;-86
2023/02/17 00:31:33;;;;;;;13.97;9.97;;;11.80;99.90;;;;;;6308586;22;20433;-86
2023/02/17 00:33:59;;;;;;;17.23;10.13;;;11.80;99.90;;;;;;6336419;22;20381;-86
2023/02/17 00:36:25;;;;;;;17.83;11.03;;;11.80;99.90;;;;;;6335965;22;20143;-86
2023/02/17 00:38:53;;;;;;;17.43;11.20;;;11.80;1.00;;;;;;6335287;22;20629;-86
2023/02/17 00:41:19;;;;;;;14.63;9.83;;;11.80;1.00;;;;;;6336078;22;20433;-86
2023/02/17 00:43:45;;;;;;;17.90;10.40;;;11.80;1.00;;;;;;6335552;22;20416;-86
2023/02/17 00:46:11;;;;;;;11.83;9.43;;;11.70;1.00;;;;;;6335858;22;20178;-87
2023/02/17 00:48:37;;;;;;;15.13;10.80;;;11.80;1.00;;;;;;6336669;22;20431;-86
2023/02/17 00:51:02;;;;;;;14.57;10.50;;;11.70;1.00;;;;;;6335885;22;20182;-86
2023/02/17 00:53:28;;;;;;;14.77;10.00;;;11.80;1.00;;;;;;6335835;22;20155;-86
2023/02/17 00:55:54;;;;;;;12.30;9.40;;;11.80;1.00;;;;;;6336443;22;20143;-86
2023/02/17 00:58:20;;;;;;;11.77;8.87;;;11.80;1.00;;;;;;6334578;22;20154;-86
2023/02/17 01:00:45;;;;;;;13.53;10.10;;;11.80;1.00;;;;;;6308776;22;20183;-87
2023/02/17 01:03:11;;;;;;;14.30;10.90;;;11.80;1.00;;;;;;6336787;22;20151;-86
2023/02/17 01:05:41;;;;;;;15.00;10.17;;;11.80;1.00;;;;;;6336949;22;20155;-87
2023/02/17 01:08:06;;;;;;;12.10;10.20;;;11.70;1.00;;;;;;6308454;22;20163;-87
2023/02/17 01:10:36;;;;;;;13.73;9.40;;;11.80;1.00;;;;;;6336259;22;20423;-86
2023/02/17 01:13:01;;;;;;;11.77;9.00;;;11.70;1.00;;;;;;6335739;22;20147;-86
2023/02/17 01:15:27;;;;;;;12.70;9.80;;;11.70;1.00;;;;;;6335075;22;20845;-86
2023/02/17 01:17:55;;;;;;;13.90;9.53;;;11.80;1.00;;;;;;6308842;22;20487;-86
2023/02/17 01:20:20;;;;;;;13.67;9.53;;;11.80;1.00;;;;;;6335214;22;20171;-86
2023/02/17 01:22:46;;;;;;;12.83;9.60;;;11.70;10.60;;;;;;6336655;22;20800;-86
2023/02/17 01:25:11;;;;;;;13.47;9.73;;;11.80;18.20;;;;;;6336217;22;20155;-87
2023/02/17 01:27:37;;;;;;;10.20;8.60;;;11.80;10.80;;;;;;6336355;22;20235;-86
2023/02/17 01:30:03;;;;;;;12.87;9.57;;;11.80;34.20;;;;;;6307326;22;20563;-87
2023/02/17 01:32:29;;;;;;;11.93;9.57;;;11.80;45.20;;;;;;6334706;22;20506;-86
2023/02/17 01:34:54;;;;;;;11.50;9.83;;;11.70;90.10;;;;;;6306829;22;20383;-87
2023/02/17 01:37:20;;;;;;;12.47;9.03;;;11.70;99.10;;;;;;6308738;22;20703;-87
2023/02/17 01:39:45;;;;;;;11.73;8.83;;;11.70;99.90;;;;;;6338112;22;20331;-86
2023/02/17 01:42:16;;;;;;;10.73;9.27;;;11.80;99.90;;;;;;6339339;22;20216;-86
2023/02/17 01:45:18;;;;;;;12.37;8.77;;;11.80;99.90;;;;;;6338201;22;20146;-86
2023/02/17 01:47:44;;;;;;;11.63;8.17;;;11.80;99.90;;;;;;6337946;22;20411;-86
2023/02/17 01:50:10;;;;;;;12.77;10.50;;;11.80;99.90;;;;;;6338619;22;20385;-86
2023/02/17 01:52:36;;;;;;;11.90;9.10;;;11.80;99.90;;;;;;6339294;22;20220;-86
2023/02/17 01:55:11;;;;;;;14.87;9.43;;;11.80;99.90;;;;;;6339263;22;20686;-86
2023/02/17 01:57:40;;;;;;;13.53;9.90;;;11.80;99.90;;;;;;6338020;22;20379;-86
2023/02/17 02:00:08;;;;;;;11.70;9.83;;;11.80;99.90;;;;;;6345211;22;20417;-86
2023/02/17 02:02:33;;;;;;;15.70;10.13;;;11.80;99.90;;;;;;6346120;22;20391;-88
2023/02/17 02:04:59;;;;;;;12.33;9.10;;;11.80;99.90;;;;;;6313452;22;20856;-86
2023/02/17 02:07:32;;;;;;;11.03;8.80;;;11.80;99.90;;;;;;6309976;22;20155;-89
2023/02/17 02:09:58;;;;;;;10.77;9.67;;;11.80;99.90;;;;;;6338004;22;20773;-86
2023/02/17 02:12:30;;;;;;;13.00;9.93;;;11.80;99.90;;;;;;6337347;22;20448;-87
2023/02/17 02:15:04;;;;;;;11.27;9.07;;;11.80;99.90;;;;;;6336646;22;20200;-86
2023/02/17 02:17:32;;;;;;;10.80;8.93;;;11.80;99.90;;;;;;6337525;22;20369;-86
2023/02/17 02:20:29;;;;;;;11.90;9.50;;;11.80;92.90;;;;;;6335985;22;20395;-86
2023/02/17 02:22:57;;;;;;;10.20;9.07;;;11.80;82.60;;;;;;6336982;22;20494;-86
2023/02/17 02:26:00;;;;;;;11.50;9.30;;;11.90;57.40;;;;;;6335797;22;20391;-86
2023/02/17 02:28:37;;;;;;;13.30;11.13;;;11.90;41.30;;;;;;6308766;22;20396;-86
2023/02/17 02:31:47;;;;;;;11.70;9.00;;;11.80;60.00;;;;;;6309634;22;20433;-86
2023/02/17 02:34:21;;;;;;;16.37;9.23;;;11.90;68.40;;;;;;6211476;23;20381;-86
2023/02/17 02:37:10;;;;;;;12.77;10.40;;;11.80;66.80;;;;;;6316850;22;20377;-85
2023/02/17 02:39:39;;;;;;;13.57;10.40;;;11.90;60.40;;;;;;6308749;22;20401;-88
2023/02/17 02:42:09;;;;;;;12.20;10.37;;;11.80;91.40;;;;;;6336811;22;20724;-89
2023/02/17 02:44:35;;;;;;;15.13;11.33;;;11.80;93.70;;;;;;6309673;22;20774;-86
2023/02/17 02:47:25;;;;;;;14.90;10.07;;;11.80;96.50;;;;;;6309329;22;20488;-86
2023/02/17 02:49:50;;;;;;;11.27;9.33;;;11.80;93.70;;;;;;6336852;22;20629;-86
2023/02/17 02:52:41;;;;;;;11.27;9.10;;;11.90;94.10;;;;;;6283547;22;20481;-86
2023/02/17 02:55:17;;;;;;;13.80;10.00;;;11.80;84.70;;;;;;6336937;22;20189;-85
2023/02/17 02:58:04;;;;;;;15.93;9.57;;;11.90;57.60;;;;;;6336544;22;20377;-87
2023/02/17 03:00:40;;;;;;;13.50;8.70;;;11.90;61.60;;;;;;6309180;22;20427;-84
2023/02/17 03:03:25;;;;;;;12.67;9.07;;;11.90;49.40;;;;;;6309613;22;20376;-86
2023/02/17 03:06:15;;;;;;;12.03;9.83;;;11.90;58.10;;;;;;6337382;22;20354;-85
2023/02/17 03:08:56;;;;;;;12.60;9.83;;;11.90;48.00;;;;;;6336731;22;20782;-88
2023/02/17 03:11:31;;;;;;;11.70;9.10;;;11.90;49.30;;;;;;6307858;22;20420;-86
2023/02/17 03:14:06;;;;;;;13.00;9.83;;;11.90;70.30;;;;;;6309548;22;20411;-85
2023/02/17 03:16:33;;;;;;;12.77;9.53;;;11.90;96.10;;;;;;6337547;22;20353;-85
2023/02/17 03:18:58;;;;;;;11.60;9.43;;;11.90;97.30;;;;;;6336350;22;20372;-86
2023/02/17 03:21:28;;;;;;;11.47;9.63;;;11.90;57.50;;;;;;6337525;22;20377;-85
2023/02/17 03:23:53;;;;;;;13.70;9.70;;;11.90;40.70;;;;;;6308792;22;20798;-85
2023/02/17 03:26:19;;;;;;;14.30;9.33;;;11.90;32.70;;;;;;6336828;22;20377;-85
2023/02/17 03:28:45;;;;;;;10.90;8.43;;;11.90;14.30;;;;;;6334910;22;20155;-86
2023/02/17 03:31:10;;;;;;;15.93;10.90;;;11.90;1.00;;;;;;6336627;22;20535;-88
2023/02/17 03:33:36;;;;;;;12.80;9.80;;;11.90;1.00;;;;;;6336451;22;20172;-86
2023/02/17 03:36:01;;;;;;;13.60;10.20;;;11.90;1.00;;;;;;6284685;22;20663;-86
2023/02/17 03:38:27;;;;;;;12.80;10.10;;;11.90;1.00;;;;;;6353165;22;20150;-86
2023/02/17 03:40:52;;;;;;;13.90;10.60;;;11.90;1.00;;;;;;6327537;22;20229;-86
2023/02/17 03:43:18;;;;;;;11.67;10.27;;;11.90;1.00;;;;;;6327571;22;20159;-86
2023/02/17 03:45:43;;;;;;;12.90;10.37;;;11.90;1.00;;;;;;6353198;22;20151;-86
2023/02/17 03:48:09;;;;;;;13.60;11.30;;;12.00;1.00;;;;;;6338009;22;20559;-86
2023/02/17 03:50:35;;;;;;;12.30;9.90;;;12.00;1.00;;;;;;6337679;22;20739;-86
2023/02/17 03:53:00;;;;;;;10.37;9.27;;;12.00;1.00;;;;;;6338095;22;20143;-86
2023/02/17 03:55:26;;;;;;;13.20;9.70;;;12.00;1.00;;;;;;6337478;22;20459;-86
2023/02/17 03:57:51;;;;;;;10.23;8.83;;;12.00;1.00;;;;;;6337151;22;20592;-86
2023/02/17 04:00:17;;;;;;;10.90;9.50;;;12.00;1.00;;;;;;6336570;22;20181;-85
2023/02/17 04:02:43;;;;;;;11.90;9.73;;;12.00;1.00;;;;;;6308215;22;20163;-85
2023/02/17 04:05:08;;;;;;;12.47;9.53;;;12.00;1.00;;;;;;6336669;22;20381;-86
2023/02/17 04:07:34;;;;;;;15.80;9.80;;;11.90;1.00;;;;;;6308632;22;20155;-86
2023/02/17 04:09:59;;;;;;;16.77;10.63;;;11.90;1.00;;;;;;6336341;22;20167;-85
2023/02/17 04:12:25;;;;;;;11.73;9.07;;;11.90;1.00;;;;;;6336399;22;20223;-86
2023/02/17 04:14:50;;;;;;;11.80;10.07;;;11.90;1.00;;;;;;6336368;22;20240;-85
2023/02/17 04:17:16;;;;;;;12.10;9.53;;;11.90;1.00;;;;;;6336595;22;20150;-85
2023/02/17 04:19:41;;;;;;;13.33;9.30;;;12.00;1.00;;;;;;6335246;22;20179;-86
2023/02/17 04:22:07;;;;;;;11.30;9.40;;;11.90;1.00;;;;;;6336072;22;20158;-87
2023/02/17 04:24:37;;;;;;;10.93;8.80;;;12.00;1.00;;;;;;6336099;22;20487;-86
2023/02/17 04:27:03;;;;;;;9.53;8.50;;;12.00;1.00;;;;;;6335831;22;20373;-88
2023/02/17 04:29:30;;;;;;;11.43;9.57;;;11.90;1.00;;;;;;6336369;22;20397;-86
2023/02/17 04:31:56;;;;;;;10.83;8.73;;;11.90;1.00;;;;;;6336137;22;20491;-85
2023/02/17 04:34:21;;;;;;;9.43;8.10;;;11.90;1.00;;;;;;6336839;22;20412;-86
2023/02/17 04:36:47;;;;;;;9.60;8.60;;;11.90;1.00;;;;;;6335246;22;20562;-85
2023/02/17 04:39:12;;;;;;;10.87;8.93;;;12.00;1.00;;;;;;6336464;22;20179;-86
2023/02/17 04:41:38;;;;;;;11.47;8.40;;;12.00;1.00;;;;;;6335436;22;20551;-87
2023/02/17 04:44:04;;;;;;;9.93;8.50;;;12.00;1.00;;;;;;6308942;22;20204;-86
2023/02/17 04:46:29;;;;;;;10.37;8.60;;;12.00;1.00;;;;;;6307298;22;20225;-86
2023/02/17 04:48:55;;;;;;;11.03;8.40;;;12.00;1.00;;;;;;6336628;22;20163;-85
2023/02/17 04:51:20;;;;;;;10.83;7.93;;;12.00;1.00;;;;;;6335772;22;20179;-86
2023/02/17 04:53:46;;;;;;;9.20;7.63;;;12.00;1.00;;;;;;6336603;22;20541;-86
2023/02/17 04:56:11;;;;;;;11.47;9.13;;;12.00;1.00;;;;;;6335412;22;20154;-88
2023/02/17 04:58:37;;;;;;;9.80;8.50;;;12.00;1.00;;;;;;6336365;22;20481;-87
2023/02/17 05:01:03;;;;;;;10.27;9.27;;;12.00;1.00;;;;;;6335672;22;20166;-86
2023/02/17 05:03:28;;;;;;;9.87;8.70;;;12.00;1.00;;;;;;6308592;22;20158;-86
2023/02/17 05:05:54;;;;;;;12.80;9.03;;;12.00;1.00;;;;;;6336482;22;20151;-87
2023/02/17 05:08:19;;;;;;;13.00;8.93;;;12.00;1.00;;;;;;6308647;22;20163;-88
2023/02/17 05:10:45;;;;;;;9.43;8.43;;;12.00;1.00;;;;;;6335667;22;20202;-86
2023/02/17 05:13:10;;;;;;;10.50;7.63;;;12.00;1.00;;;;;;6307073;22;20495;-86
2023/02/17 05:15:36;;;;;;;12.20;8.80;;;12.00;1.00;;;;;;6336140;22;20147;-86
2023/02/17 05:18:02;;;;;;;9.23;8.33;;;12.00;1.00;;;;;;6336018;22;20591;-86
2023/02/17 05:20:28;;;;;;;9.90;7.40;;;12.00;1.00;;;;;;6334963;22;20166;-86
2023/02/17 05:22:53;;;;;;;10.77;7.90;;;12.00;1.00;;;;;;6336462;22;20434;-85
2023/02/17 05:25:19;;;;;;;9.50;7.60;;;12.00;1.00;;;;;;6335973;22;20196;-85
2023/02/17 05:27:44;;;;;;;10.00;8.63;;;12.00;1.00;;;;;;6307755;22;20549;-85
2023/02/17 05:30:10;;;;;;;10.13;9.03;;;12.10;1.00;;;;;;6336013;22;20202;-85
2023/02/17 05:32:36;;;;;;;10.30;7.80;;;12.00;1.00;;;;;;6336668;22;20265;-86
2023/02/17 05:35:02;;;;;;;10.00;8.23;;;12.00;1.00;;;;;;6346056;22;20385;-87
2023/02/17 05:37:28;;;;;;;10.90;7.60;;;12.00;1.00;;;;;;6346690;22;20162;-85
2023/02/17 05:39:53;;;;;;;11.80;8.43;;;12.00;1.00;;;;;;6309203;22;20400;-86
2023/02/17 05:42:19;;;;;;;9.73;8.77;;;12.00;1.00;;;;;;6336347;22;20703;-85
2023/02/17 05:44:44;;;;;;;10.90;9.00;;;12.00;1.00;;;;;;6335749;22;20185;-86
2023/02/17 05:47:10;;;;;;;10.40;8.20;;;12.00;1.00;;;;;;6334243;22;20163;-86
2023/02/17 05:49:35;;;;;;;11.30;8.53;;;12.00;1.00;;;;;;6335626;22;20186;-86
2023/02/17 05:52:01;;;;;;;10.07;8.37;;;12.10;1.00;;;;;;6335634;22;20178;-86
2023/02/17 05:54:27;;;;;;;9.47;7.60;;;12.00;1.00;;;;;;6307963;22;20166;-86
2023/02/17 05:56:52;;;;;;;10.93;8.43;;;12.00;1.00;;;;;;6307916;22;20385;-89
2023/02/17 05:59:18;;;;;;;9.20;8.17;;;12.00;1.00;;;;;;6336264;22;20236;-85
2023/02/17 06:01:43;;;;;;;11.67;7.77;;;12.00;1.00;;;;;;6308186;22;20143;-86
2023/02/17 06:04:09;;;;;;;10.90;8.13;;;12.10;1.00;;;;;;6307143;22;20182;-86
2023/02/17 06:06:34;;;;;;;8.97;8.03;;;12.00;1.00;;;;;;6335614;22;20154;-87
2023/02/17 06:09:00;;;;;;;13.10;9.17;;;12.00;1.00;;;;;;6307765;22;20155;-86
2023/02/17 06:11:26;;;;;;;8.97;7.53;;;12.10;1.00;;;;;;6335856;22;20178;-86
2023/02/17 06:13:51;;;;;;;8.60;7.80;;;12.10;1.00;;;;;;6335279;22;20663;-85
2023/02/17 06:16:16;;;;;;;10.67;8.47;;;12.00;1.00;;;;;;6336058;22;20147;-85
2023/02/17 06:18:42;;;;;;;9.70;8.70;;;12.10;1.00;;;;;;6281837;22;20151;-86
2023/02/17 06:21:08;;;;;;;13.37;9.27;;;12.10;1.00;;;;;;6334472;22;20239;-87
2023/02/17 06:23:33;;;;;;;10.53;8.40;;;12.00;1.00;;;;;;6308360;22;20159;-86
2023/02/17 06:25:59;;;;;;;10.60;8.53;;;12.10;3.50;;;;;;6337736;22;20162;-86
2023/02/17 06:28:24;;;;;;;10.23;7.60;;;12.00;26.30;;;;;;6309094;22;20159;-87
2023/02/17 06:30:50;;;;;;;12.00;8.37;;;12.00;31.30;;;;;;6309504;22;20183;-86
2023/02/17 06:33:15;;;;;;;10.93;7.57;;;12.00;60.60;;;;;;6337766;22;20151;-86
2023/02/17 06:35:43;;;;;;;10.63;7.57;;;12.10;63.70;;;;;;6337759;22;20215;-86
2023/02/17 06:38:08;;;;;;;11.80;8.30;;;12.10;80.60;;;;;;6337779;22;20143;-86
2023/02/17 06:40:34;;;;;;;9.00;7.60;;;12.00;96.80;;;;;;6309134;22;20720;-85
2023/02/17 06:43:00;;;;;;;12.23;9.43;;;12.00;99.90;;;;;;6337738;22;20582;-87
2023/02/17 06:45:25;;;;;;;8.43;7.33;;;12.00;99.90;;;;;;6309998;22;20239;-89
2023/02/17 06:47:51;;;;;;;9.27;7.33;;;12.00;99.90;;;;;;6320103;22;20511;-86
2023/02/17 06:50:17;;;;;;;15.57;8.90;;;12.00;99.90;;;;;;6338068;22;20167;-86
2023/02/17 06:52:42;;;;;;;9.80;7.40;;;12.10;99.90;;;;;;6337896;22;20458;-87
2023/02/17 06:55:08;;;;;;;9.60;7.03;;;12.10;97.00;;;;;;6337197;22;20153;-87
2023/02/17 06:57:33;;;;;;;8.80;6.87;;;12.10;92.60;;;;;;6336048;22;20151;-86
2023/02/17 06:59:59;;;;;;;9.43;7.00;;;12.10;92.10;;;;;;6337917;22;20244;-86
2023/02/17 07:02:24;;;;;;;11.43;7.87;;;12.10;99.90;;;;;;6339328;22;20234;-87
2023/02/17 07:04:50;;;;;;;10.23;7.20;;;12.10;99.90;;;;;;6339917;22;20681;-86
2023/02/17 07:07:15;;;;;;;9.93;8.07;;;12.20;99.90;;;;;;6341314;22;20151;-86
2023/02/17 07:09:41;;;;;;;10.70;8.00;;;12.20;99.90;;;;;;6341288;22;20170;-87
2023/02/17 07:12:06;;;;;;;10.23;7.87;;;12.20;99.90;;;;;;6338994;22;20744;-89
2023/02/17 07:14:33;;;;;;;10.90;7.23;;;12.20;99.90;;;;;;6340143;22;20339;-86
2023/02/17 07:17:00;;;;;;;9.10;7.40;;;12.20;99.90;;;;;;6340826;22;20151;-87
2023/02/17 07:19:25;;;;;;;10.80;8.70;;;12.20;99.90;;;;;;6342023;22;20394;-86
2023/02/17 07:21:51;;;;;;;9.20;7.43;;;12.20;99.90;;;;;;6341668;22;20474;-89
2023/02/17 07:24:16;;;;;;;12.10;7.33;;;12.20;99.90;;;;;;6341820;22;20185;-85
2023/02/17 07:26:42;;;;;;;14.70;7.60;;;12.30;99.90;;;;;;6342691;22;20594;-86
2023/02/17 07:29:08;;;;;;;10.00;7.67;;;12.30;99.90;;;;;;6340806;22;20174;-88
2023/02/17 07:31:34;;;;;;;8.53;6.97;;;12.30;99.90;;;;;;6339301;22;20212;-86
2023/02/17 07:34:00;;;;;;;12.27;8.30;;;12.30;99.90;;;;;;6340442;22;20156;-86
2023/02/17 07:36:26;;;;;;;9.97;8.10;;;12.30;99.90;;;;;;6339193;22;20413;-87
2023/02/17 07:38:52;;;;;;;9.93;8.20;;;12.30;99.90;;;;;;6340979;22;20720;-87
2023/02/17 07:41:20;;;;;;;10.57;7.63;;;12.30;99.90;;;;;;6340451;22;20428;-86
2023/02/17 07:43:47;;;;;;;9.37;6.83;;;12.30;99.90;;;;;;6339188;22;20155;-87
2023/02/17 07:46:13;;;;;;;9.60;8.07;;;12.30;99.90;;;;;;6338436;22;20381;-86
2023/02/17 07:48:39;;;;;;;9.00;7.67;;;12.30;99.90;;;;;;6340499;22;20396;-86
2023/02/17 07:51:10;;;;;;;9.57;7.20;;;12.40;99.90;;;;;;6312664;22;20717;-86
2023/02/17 07:53:36;;;;;;;8.07;7.17;;;12.40;99.90;;;;;;6316649;22;20386;-86
2023/02/17 07:56:06;;;;;;;6.93;6.00;;;12.40;99.90;;;;;;6345386;22;20392;-86
2023/02/17 07:58:33;;;;;;;10.13;7.50;;;12.50;99.90;;;;;;6320612;22;20388;-86
2023/02/17 08:01:09;;;;;;;9.83;7.07;;;12.50;99.90;;;;;;6318745;22;20890;-89
2023/02/17 08:03:34;;;;;;;8.77;6.40;;;12.60;99.90;;;;;;6346072;22;20384;-86
2023/02/17 08:06:00;;;;;;;7.97;6.80;;;12.60;99.90;;;;;;6342952;22;20369;-86
2023/02/17 08:14:00;;;;;;;10.07;7.63;;;12.80;91.90;;;;;;6341038;22;20407;-85
2023/02/17 08:16:26;;;;;;;8.97;7.00;;;12.90;1.00;;;;;;6340799;22;20370;-85
2023/02/17 08:18:54;;;;;;;9.27;7.20;;;12.90;1.00;;;;;;6311154;22;20473;-86
2023/02/17 08:21:20;;;;;;;10.90;8.10;;;13.10;1.00;;;;;;6336604;22;20417;-85
2023/02/17 08:23:45;;;;;;;7.93;6.50;;;13.10;1.00;;;;;;6337871;22;20377;-86
2023/02/17 08:26:11;;;;;;;8.43;5.90;;;13.20;1.00;;;;;;6339513;22;20450;-86
2023/02/17 08:28:36;;;;;;;8.90;6.87;;;13.20;1.00;;;;;;6339379;22;20192;-86
2023/02/17 08:31:02;;;;;;;7.97;6.43;;;13.20;99.90;;;;;;6309231;22;20178;-85
2023/02/17 08:33:27;;;;;;;9.80;6.73;;;13.20;99.90;;;;;;6339273;22;20215;-86
2023/02/17 08:35:53;;;;;;;7.47;6.57;;;13.30;99.90;;;;;;6338349;22;20151;-88
2023/02/17 08:38:18;;;;;;;7.20;5.70;;;13.40;99.90;;;;;;6338541;22;20167;-86
2023/02/17 08:40:44;;;;;;;8.90;6.10;;;13.50;99.90;;;;;;6337625;22;20420;-85
2023/02/17 08:43:10;;;;;;;7.70;6.40;;;13.60;1.00;;;;;;6338896;22;20567;-86
2023/02/17 08:45:36;;;;;;;8.10;7.00;;;13.80;1.00;;;;;;6336518;22;20178;-86
2023/02/17 08:48:05;;;;;;;7.67;6.43;;;13.90;1.00;;;;;;6337179;22;20170;-88
2023/02/17 08:51:47;;;;;;;;;;;;;;;;;;;;;
2023/02/17 08:54:43;;;;;;;7.73;5.67;;;14.10;99.90;;;;;;6334117;22;20385;-87
2023/02/17 08:57:19;;;;;;;;;;;;;;;;;;;;;
2023/02/17 08:59:46;;;;;;;8.20;6.00;;;14.30;99.90;;;;;;6337089;22;20800;-89
2023/02/17 09:02:13;;;;;;;6.97;5.10;;;14.40;8.50;;;;;;6336654;22;20505;-88
2023/02/17 09:04:38;;;;;;;7.43;5.50;;;14.50;1.00;;;;;;6309165;22;20380;-87
2023/02/17 09:07:15;;;;;;;7.37;5.87;;;14.70;99.90;;;;;;6310160;22;20761;-88
2023/02/17 09:09:44;;;;;;;8.50;6.30;;;14.90;99.90;;;;;;6338461;22;20174;-87
2023/02/17 09:12:09;;;;;;;5.70;4.67;;;15.10;99.90;;;;;;6310908;22;20481;-90
2023/02/17 09:14:35;;;;;;;7.97;5.40;;;15.30;1.00;;;;;;6309171;22;20396;-88
2023/02/17 09:17:04;;;;;;;6.40;5.80;;;15.50;1.00;;;;;;6308164;22;20241;-89
2023/02/17 09:19:30;;;;;;;6.77;5.10;;;15.70;99.90;;;;;;6335983;22;20196;-90
2023/02/17 09:21:55;;;;;;;7.43;6.37;;;15.60;99.90;;;;;;6335260;22;20911;-88
2023/02/17 09:24:24;;;;;;;6.33;5.60;;;15.60;99.90;;;;;;6307399;22;20606;-89
2023/02/17 09:26:49;;;;;;;7.20;5.30;;;15.70;57.40;;;;;;6308281;22;20150;-87
2023/02/17 09:29:15;;;;;;;7.63;4.60;;;15.70;8.20;;;;;;6336316;22;20893;-88
2023/02/17 09:31:41;;;;;;;6.13;5.13;;;15.60;1.00;;;;;;6308654;22;20154;-88
2023/02/17 09:34:06;;;;;;;10.50;5.57;;;15.70;1.00;;;;;;6335754;22;20226;-88
2023/02/17 09:36:36;;;;;;;6.30;5.03;;;15.80;1.00;;;;;;6308921;22;20182;-88
2023/02/17 09:39:02;;;;;;;6.80;5.27;;;15.90;1.00;;;;;;6335645;22;20140;-88
2023/02/17 09:41:38;;;;;;;7.13;5.17;;;16.30;1.00;;;;;;6335903;22;20923;-87
2023/02/17 09:44:18;;;;;;;6.70;5.40;;;16.50;99.90;;;;;;6336236;22;20136;-88
2023/02/17 09:46:54;;;;;;;6.30;4.80;;;16.80;99.90;;;;;;6307450;22;20383;-86
2023/02/17 09:49:25;;;;;;;4.33;3.83;;;17.40;16.50;;;;;;6336102;22;20856;-89
2023/02/17 09:52:06;;;;;;;5.73;4.47;;;18.10;1.00;;;;;;6335629;22;20407;-88
2023/02/17 09:54:35;;;;;;;5.27;4.10;;;18.80;1.00;;;;;;6307804;22;20463;-88
2023/02/17 09:57:02;;;;;;;4.90;4.23;;;19.20;1.00;;;;;;6308429;22;20427;-89
2023/02/17 09:59:35;;;;;;;4.50;4.10;;;19.00;1.00;;;;;;6309457;22;20398;-89
2023/02/17 10:02:10;;;;;;;4.83;4.33;;;18.50;1.00;;;;;;6308599;22;20454;-88
2023/02/17 10:04:41;;;;;;;5.07;3.80;;;18.40;1.00;;;;;;6310567;22;20724;-88
2023/02/17 10:07:29;;;;;;;5.23;4.50;;;18.10;1.00;;;;;;6310416;22;20375;-88
2023/02/17 10:10:05;;;;;;;5.53;4.10;;;18.20;1.00;;;;;;6337665;22;20899;-89
2023/02/17 10:12:37;;;;;;;7.47;4.10;;;18.80;1.00;;;;;;6310664;22;20387;-89
2023/02/17 10:15:13;;;;;;;5.60;4.17;;;18.90;99.90;;;;;;6312429;22;20392;-88
2023/02/17 10:17:51;;;;;;;4.60;3.77;;;18.70;99.90;;;;;;6311671;22;20862;-89
2023/02/17 10:20:32;;;;;;;4.60;3.90;;;18.90;99.90;;;;;;6309652;22;20412;-89
2023/02/17 10:23:12;;;;;;;5.90;4.33;;;18.90;99.90;;;;;;6337648;22;20364;-88
2023/02/17 10:25:46;;;;;;;7.77;4.90;;;18.90;99.90;;;;;;6309839;22;20376;-92
2023/02/17 10:28:56;;;;;;;4.33;3.90;;;19.00;99.90;;;;;;6337313;22;20369;-87
2023/02/17 10:31:43;;;;;;;4.53;3.70;;;19.30;99.90;;;;;;6310913;22;20388;-90
2023/02/17 10:34:30;;;;;;;4.90;3.70;;;19.30;99.90;;;;;;6335572;22;20692;-88
2023/02/17 10:37:01;;;;;;;5.57;4.40;;;18.90;99.90;;;;;;6310527;22;20371;-87
2023/02/17 10:39:46;;;;;;;5.40;4.20;;;18.50;99.90;;;;;;6338828;22;20403;-87
2023/02/17 10:42:26;;;;;;;5.87;4.30;;;18.40;99.90;;;;;;6310617;22;20423;-87
2023/02/17 10:44:57;;;;;;;5.07;3.97;;;17.80;99.90;;;;;;6338273;22;20356;-88
2023/02/17 10:47:25;;;;;;;6.77;3.80;;;17.50;99.90;;;;;;6338726;22;20421;-89
2023/02/17 10:49:54;;;;;;;4.40;3.50;;;17.20;1.00;;;;;;6338591;22;20392;-87
2023/02/17 10:52:40;;;;;;;7.40;3.80;;;17.00;1.00;;;;;;6338033;22;20377;-88
2023/02/17 10:55:40;;;;;;;4.80;3.23;;;16.90;1.00;;;;;;6337887;22;20446;-88
2023/02/17 10:58:20;;;;;;;5.83;3.53;;;16.80;1.00;;;;;;6244338;22;20454;-87
2023/02/17 11:00:55;;;;;;;4.50;3.43;;;16.60;1.00;;;;;;6309336;22;20450;-88
2023/02/17 11:03:28;;;;;;;4.20;3.13;;;16.50;1.00;;;;;;6338482;22;20368;-87
2023/02/17 11:06:09;;;;;;;4.87;4.10;;;16.40;1.00;;;;;;6309407;22;20373;-88
2023/02/17 11:08:53;;;;;;;6.50;3.80;;;16.40;1.00;;;;;;6310944;22;20391;-87
2023/02/17 11:11:34;;;;;;;5.13;4.27;;;16.50;19.20;;;;;;6336999;22;20364;-87
2023/02/17 11:14:31;;;;;;;5.17;4.40;;;16.60;8.40;;;;;;6340042;22;20389;-88
2023/02/17 11:17:03;;;;;;;5.10;4.10;;;16.70;1.00;;;;;;6341030;22;20443;-88
2023/02/17 11:19:43;;;;;;;5.90;3.97;;;16.80;1.00;;;;;;6336939;22;20397;-88
2023/02/17 11:25:32;;;;;;;6.50;4.70;;;17.10;1.00;;;;;;6338701;22;20376;-87
2023/02/17 11:28:10;;;;;;;5.03;3.77;;;17.30;1.00;;;;;;6310274;22;20367;-88
2023/02/17 11:30:41;;;;;;;5.30;3.87;;;17.50;1.00;;;;;;6308479;22;20792;-88
2023/02/17 11:33:18;;;;;;;5.77;4.30;;;17.70;1.00;;;;;;6309750;22;20468;-86
2023/02/17 11:36:14;;;;;;;4.13;3.53;;;17.90;1.00;;;;;;6308619;22;20701;-87
2023/02/17 11:38:59;;;;;;;5.53;3.80;;;18.00;1.00;;;;;;6336030;22;20381;-88
2023/02/17 11:41:38;;;;;;;4.73;3.53;;;18.30;1.00;;;;;;6308650;22;20412;-88
2023/02/17 11:44:34;;;;;;;4.80;3.80;;;18.20;1.00;;;;;;6336810;22;20351;-87
2023/02/17 11:47:29;;;;;;;5.40;4.37;;;18.30;1.00;;;;;;6336422;22;20400;-87
2023/02/17 11:50:09;;;;;;;5.00;3.50;;;18.50;1.00;;;;;;6308895;22;20413;-87
2023/02/17 11:52:56;;;;;;;5.53;4.03;;;18.70;1.00;;;;;;6336570;22;20468;-87
2023/02/17 11:55:53;;;;;;;7.13;4.50;;;18.80;99.90;;;;;;6336043;22;20365;-88
2023/02/17 11:58:30;;;;;;;5.70;4.37;;;18.70;99.90;;;;;;6336594;22;20371;-87
2023/02/17 12:01:29;;;;;;;4.40;3.40;;;18.90;99.90;;;;;;6335727;22;20928;-87
2023/02/17 12:04:25;;;;;;;6.07;3.93;;;18.80;99.90;;;;;;6309300;22;20390;-88
2023/02/17 12:07:03;;;;;;;3.57;3.20;;;18.40;99.90;;;;;;6306280;22;20411;-87
2023/02/17 12:09:38;;;;;;;12.10;4.33;;;18.10;99.90;;;;;;6304178;22;20395;-88
2023/02/17 12:12:15;;;;;;;5.70;3.30;;;17.90;99.90;;;;;;6333801;22;20447;-88
2023/02/17 12:14:51;;;;;;;4.40;2.87;;;17.70;1.00;;;;;;6335711;22;20801;-87
2023/02/17 12:18:02;;;;;;;5.77;3.27;;;17.70;1.00;;;;;;6334446;22;20361;-86
2023/02/17 12:21:05;;;;;;;3.73;2.90;;;17.90;1.00;;;;;;6334930;22;20482;-87
2023/02/17 12:23:58;;;;;;;4.23;3.00;;;18.10;1.00;;;;;;6333645;22;20413;-88
2023/02/17 12:26:35;;;;;;;3.63;3.00;;;18.00;99.90;;;;;;6335278;22;20379;-88
2023/02/17 12:29:14;;;;;;;5.97;3.87;;;18.20;99.90;;;;;;6307865;22;20874;-86
2023/02/17 12:31:54;;;;;;;4.50;3.60;;;18.70;99.90;;;;;;6335167;22;20368;-88
2023/02/17 12:34:54;;;;;;;4.93;3.00;;;19.30;99.90;;;;;;6334820;22;20366;-87
2023/02/17 12:37:35;;;;;;;3.27;2.47;;;19.90;99.90;;;;;;6269551;22;20390;-88
2023/02/17 12:40:27;;;;;;;4.17;3.10;;;19.90;99.90;;;;;;6307800;22;20397;-87
2023/02/17 12:42:58;;;;;;;4.87;2.93;;;20.30;99.90;;;;;;6336777;22;20957;-87
2023/02/17 12:45:40;;;;;;;4.57;2.90;;;20.20;99.90;;;;;;6337417;22;20449;-87
2023/02/17 12:48:23;;;;;;;3.43;2.80;;;20.30;99.90;;;;;;6326404;22;20492;-88
2023/02/17 12:51:10;;;;;;;6.20;3.00;;;20.20;99.90;;;;;;6332701;22;20400;-88
2023/02/17 12:53:45;;;;;;;5.20;2.40;;;20.10;99.90;;;;;;6335355;22;20366;-88
2023/02/17 12:56:32;;;;;;;;;;;;;;;;;;;;;
2023/02/17 12:59:08;;;;;;;4.03;2.43;;;19.70;99.90;;;;;;6336243;22;20436;-88
2023/02/17 13:01:56;;;;;;;8.93;3.73;;;19.50;99.90;;;;;;6334513;22;20419;-88
2023/02/17 13:04:25;;;;;;;2.90;2.47;;;19.60;99.90;;;;;;6334601;22;20380;-89
2023/02/17 13:07:19;;;;;;;4.40;2.80;;;19.60;99.90;;;;;;6336309;22;20400;-89
2023/02/17 13:09:46;;;;;;;6.00;2.93;;;19.40;99.90;;;;;;6323614;22;20448;-88
2023/02/17 13:12:30;;;;;;;4.93;3.03;;;19.40;99.90;;;;;;6333758;22;20420;-88
2023/02/17 13:15:04;;;;;;;8.67;3.30;;;19.00;99.90;;;;;;6335570;22;20371;-88
2023/02/17 13:17:37;;;;;;;5.70;3.57;;;18.60;99.90;;;;;;6334016;22;20899;-88
2023/02/17 13:20:08;;;;;;;3.80;3.20;;;18.30;99.90;;;;;;6335281;22;20761;-87